Flight Track Log - Related Links

Times and Time Zones

All times are in EDT time to prevent confusion due to time zone crossing. See the N543JC flight status page for this flight to view local times or setup timezone preferences in your user account.

Time Position Orientation Groundspeed Altitude Reporting Facility
EDT Latitude Longitude Course Direction KTS MPH feet Rate Location/Type
Mon 12:05:56 PM 38.9106 -75.4108 351° North 172 198 3,300  Level FAA TRACON SMA TRACON (SMA)
Mon 12:06:36 PM 38.9397 -75.4169 350° North 164 189 3,700 600 Climbing FAA TRACON SMA TRACON (SMA)
Mon 12:07:16 PM 38.9706 -75.4242 349° North 162 186 4,100 600 Climbing FAA TRACON SMA TRACON (SMA)
Mon 12:07:56 PM 39.0011 -75.4317 349° North 161 185 4,500 578 Climbing FAA TRACON SMA TRACON (SMA)
Mon 12:08:39 PM 39.0314 -75.4392 349° North 159 183 4,900 370 Climbing FAA TRACON SMA TRACON (SMA)
Mon 12:09:17 PM 39.0586 -75.4461 349° North 162 186 5,000 156 Climbing FAA TRACON SMA TRACON (SMA)
Mon 12:09:56 PM 39.0903 -75.4539 347° North 175 201 5,100  Climbing FAA TRACON SMA TRACON (SMA)
Mon 12:10:39 PM 39.1225 -75.4636 349° North 178 205 5,000 -75 Descending FAA TRACON SMA TRACON (SMA)
Mon 12:11:16 PM 39.1558 -75.4719 348° North 177 204 5,000  Level FAA TRACON SMA TRACON (SMA)
Mon 12:11:56 PM 39.1889 -75.4808 350° North 175 201 5,000  Level FAA TRACON SMA TRACON (SMA)
Mon 12:12:36 PM 39.2183 -75.4875 347° North 175 201 5,000 75 Level FAA TRACON SMA TRACON (SMA)
Mon 12:13:16 PM 39.2514 -75.4975 350° North 176 203 5,100  Climbing FAA TRACON SMA TRACON (SMA)
Mon 12:13:56 PM 39.2844 -75.5050 346° North 173 199 5,000 -75 Descending FAA TRACON SMA TRACON (SMA)
Mon 12:14:36 PM 39.3169 -75.5153 355° North 175 201 5,000  Level FAA TRACON SMA TRACON (SMA)
Mon 12:15:16 PM 39.3458 -75.5183 334° Northwest 176 203 5,000  Level FAA TRACON SMA TRACON (SMA)
Mon 12:15:56 PM 39.3767 -75.5375 338° Northwest 187 215 5,000 75 Level FAA TRACON SMA TRACON (SMA)
Mon 12:16:36 PM 39.4044 -75.5522 339° North 169 194 5,100 -75 Climbing FAA TRACON SMA TRACON (SMA)
Mon 12:17:16 PM 39.4358 -75.5681 333° Northwest 173 199 4,900 -375 Descending FAA TRACON SMA TRACON (SMA)
Mon 12:17:56 PM 39.4672 -75.5883 332° Northwest 182 209 4,600 -525 Descending FAA TRACON SMA TRACON (SMA)
Mon 12:18:36 PM 39.4989 -75.6097 330° Northwest 185 213 4,200 -525 Descending FAA TRACON SMA TRACON (SMA)
Mon 12:19:16 PM 39.5275 -75.6311 333° Northwest 190 219 3,900 -450 Descending FAA TRACON SMA TRACON (SMA)
Mon 12:19:56 PM 39.5611 -75.6531 332° Northwest 193 222 3,600 -450 Descending FAA TRACON SMA TRACON (SMA)
Mon 12:20:36 PM 39.5903 -75.6728 328° Northwest 199 229 3,300 -375 Descending FAA TRACON SMA TRACON (SMA)
Mon 12:21:16 PM 39.6244 -75.7003 329° Northwest 198 228 3,100 -150 Descending FAA TRACON SMA TRACON (SMA)
Mon 12:21:56 PM 39.6558 -75.7250 346° North 191 220 3,100  Level FAA TRACON SMA TRACON (SMA)
Mon 12:22:36 PM 39.6875 -75.7350 351° North 179 206 3,100  Level FAA TRACON SMA TRACON (SMA)
Mon 12:23:16 PM 39.7228 -75.7419 348° North 187 215 3,100 -300 Level FAA TRACON SMA TRACON (SMA)
Mon 12:23:56 PM 39.7583 -75.7519 38° Northeast 188 216 2,700 -525 Descending FAA TRACON SMA TRACON (SMA)
Mon 12:24:36 PM 39.7844 -75.7256 58° Northeast 199 229 2,400 -450 Descending FAA TRACON SMA TRACON (SMA)
Mon 12:25:16 PM 39.8047 -75.6836 39° Northeast 200 230 2,100 -225 Descending FAA TRACON SMA TRACON (SMA)
Mon 12:25:56 PM 39.8325 -75.6542 45° Northeast 184 212 2,100  Level FAA TRACON SMA TRACON (SMA)
Mon 12:26:36 PM 39.8533 -75.6267 46° Northeast 182 209 2,100  Level FAA TRACON SMA TRACON (SMA)
Mon 12:27:16 PM 39.8783 -75.5925 43° Northeast 183 211 2,100  Level FAA TRACON SMA TRACON (SMA)
Mon 12:27:56 PM 39.9036 -75.5622 46° Northeast 178 205 2,100 -75 Level FAA TRACON SMA TRACON (SMA)
Mon 12:28:36 PM 39.9258 -75.5325 43° Northeast 181 208 2,000 -150 Descending FAA TRACON SMA TRACON (SMA)
Mon 12:29:16 PM 39.9511 -75.5014 45° Northeast 183 211 1,900 -300 Descending FAA TRACON SMA TRACON (SMA)
Mon 12:29:56 PM 39.9772 -75.4678 44° Northeast 190 219 1,600 -225 Descending FAA TRACON SMA TRACON (SMA)
Mon 12:30:36 PM 39.9992 -75.4400 43° Northeast 182 209 1,600  Level FAA TRACON SMA TRACON (SMA)
Mon 12:31:16 PM 40.0247 -75.4089 44° Northeast 178 205 1,600  Level FAA TRACON SMA TRACON (SMA)
Mon 12:31:56 PM 40.0494 -75.3778 43° Northeast 178 205 1,600  Level FAA TRACON SMA TRACON (SMA)
Mon 12:32:37 PM 40.0628 -75.3617 43° Northeast 173 199 1,600  Level FAA TRACON SMA TRACON (SMA)

Login

Don't have an account? Register now (free) for customized features, flight alerts, and more!